createdAt,value
2022-08-14T00:01:55.274Z,6.30
2022-08-14T00:04:35.094Z,4.33
2022-08-14T00:07:11.651Z,2.67
2022-08-14T00:09:55.770Z,2.43
2022-08-14T00:12:39.049Z,2.60
2022-08-14T00:15:11.738Z,2.83
2022-08-14T00:17:48.036Z,2.67
2022-08-14T00:20:30.615Z,3.90
2022-08-14T00:23:11.953Z,2.80
2022-08-14T00:25:58.691Z,2.90
2022-08-14T00:28:35.072Z,3.20
2022-08-14T00:31:03.189Z,2.87
2022-08-14T00:33:51.955Z,2.50
2022-08-14T00:36:35.363Z,4.83
2022-08-14T00:39:14.040Z,4.13
2022-08-14T00:41:43.680Z,3.57
2022-08-14T00:44:12.163Z,3.17
2022-08-14T00:46:40.994Z,3.00
2022-08-14T00:49:14.700Z,3.53
2022-08-14T00:51:45.464Z,3.70
2022-08-14T00:54:20.955Z,2.90
2022-08-14T00:56:55.116Z,3.23
2022-08-14T00:59:24.776Z,2.27
2022-08-14T01:01:54.957Z,2.80
2022-08-14T01:04:38.383Z,2.53
2022-08-14T01:07:14.269Z,2.83
2022-08-14T01:09:42.575Z,3.00
2022-08-14T01:12:13.185Z,3.17
2022-08-14T01:14:55.830Z,3.23
2022-08-14T01:17:49.676Z,3.03
2022-08-14T01:20:35.951Z,3.03
2022-08-14T01:23:16.571Z,3.67
2022-08-14T01:25:46.457Z,3.07
2022-08-14T01:28:46.745Z,2.93
2022-08-14T01:31:02.410Z,2.47
2022-08-14T01:33:59.206Z,3.23
2022-08-14T01:36:23.178Z,2.47
2022-08-14T01:38:57.124Z,3.67
2022-08-14T01:41:30.086Z,3.03
2022-08-14T01:44:02.486Z,4.07
2022-08-14T01:46:33.566Z,4.07
2022-08-14T01:49:07.789Z,5.00
2022-08-14T01:51:36.546Z,3.33
2022-08-14T01:54:09.741Z,3.63
2022-08-14T01:56:39.385Z,2.97
2022-08-14T01:59:09.985Z,3.57
2022-08-14T02:01:58.154Z,4.00
2022-08-14T02:04:55.222Z,3.90
2022-08-14T02:07:44.675Z,4.57
2022-08-14T02:10:13.153Z,4.17
2022-08-14T02:12:43.639Z,4.13
2022-08-14T02:15:12.647Z,4.50
2022-08-14T02:17:43.588Z,6.27
2022-08-14T02:20:13.966Z,8.43
2022-08-14T02:22:47.871Z,3.60
2022-08-14T02:25:17.486Z,3.70
2022-08-14T02:28:24.523Z,4.40
2022-08-14T02:30:34.727Z,4.57
2022-08-14T02:33:07.638Z,5.93
2022-08-14T02:35:41.363Z,4.63
2022-08-14T02:38:21.528Z,4.13
2022-08-14T02:40:59.879Z,3.93
2022-08-14T02:43:36.484Z,5.57
2022-08-14T02:46:05.476Z,5.43
2022-08-14T02:49:01.168Z,4.30
2022-08-14T02:51:24.532Z,3.90
2022-08-14T02:53:58.996Z,4.40
2022-08-14T02:56:29.993Z,4.57
2022-08-14T02:59:01.942Z,4.07
2022-08-14T03:01:50.284Z,3.83
2022-08-14T03:04:20.274Z,4.33
2022-08-14T03:06:57.940Z,4.60
2022-08-14T03:10:25.028Z,4.57
2022-08-14T03:12:30.791Z,4.27
2022-08-14T03:15:00.155Z,4.87
2022-08-14T03:17:32.080Z,4.20
2022-08-14T03:20:11.136Z,4.53
2022-08-14T03:22:42.219Z,5.20
2022-08-14T03:25:12.562Z,5.37
2022-08-14T03:27:47.859Z,5.13
2022-08-14T03:30:24.652Z,5.37
2022-08-14T03:33:08.009Z,4.33
2022-08-14T03:35:39.934Z,4.57
2022-08-14T03:39:11.662Z,6.83
2022-08-14T03:41:16.677Z,4.53
2022-08-14T03:43:47.619Z,3.87
2022-08-14T03:46:52.547Z,4.80
2022-08-14T03:49:14.537Z,4.93
2022-08-14T03:51:52.719Z,4.33
2022-08-14T03:54:22.415Z,4.87
2022-08-14T03:56:50.184Z,5.83
2022-08-14T03:59:20.103Z,5.10
2022-08-14T04:01:57.972Z,5.80
2022-08-14T04:04:30.333Z,5.77
2022-08-14T04:06:59.381Z,3.67
2022-08-14T04:09:27.436Z,3.83
2022-08-14T04:11:56.124Z,3.77
2022-08-14T04:14:25.817Z,3.97
2022-08-14T04:16:53.491Z,4.00
2022-08-14T04:19:23.913Z,4.83
2022-08-14T04:22:02.369Z,3.80
2022-08-14T04:24:39.145Z,4.43
2022-08-14T04:27:09.638Z,4.07
2022-08-14T04:29:40.335Z,5.47
2022-08-14T04:32:58.455Z,6.37
2022-08-14T04:35:00.361Z,4.67
2022-08-14T04:37:45.669Z,4.60
2022-08-14T04:40:33.114Z,4.50
2022-08-14T04:43:21.046Z,4.10
2022-08-14T04:45:51.498Z,4.43
2022-08-14T04:48:39.460Z,6.73
2022-08-14T04:51:12.170Z,5.03
2022-08-14T04:53:43.989Z,4.80
2022-08-14T04:56:30.456Z,4.57
2022-08-14T04:59:10.694Z,3.83
2022-08-14T05:01:47.989Z,4.23
2022-08-14T05:04:20.137Z,3.73
2022-08-14T05:06:49.450Z,3.13
2022-08-14T05:09:18.315Z,4.40
2022-08-14T05:11:49.838Z,4.47
2022-08-14T05:14:46.446Z,4.53
2022-08-14T05:17:10.525Z,4.57
2022-08-14T05:19:44.382Z,4.63
2022-08-14T05:22:27.904Z,4.57
2022-08-14T05:24:56.474Z,4.63
2022-08-14T05:27:24.247Z,3.83
2022-08-14T05:29:55.544Z,5.00
2022-08-14T05:32:28.176Z,4.57
2022-08-14T05:34:59.073Z,5.33
2022-08-14T05:37:29.658Z,6.33
2022-08-14T05:40:01.068Z,5.17
2022-08-14T05:42:34.306Z,4.53
2022-08-14T05:45:05.689Z,5.40
2022-08-14T05:47:42.967Z,5.07
2022-08-14T05:50:17.273Z,5.63
2022-08-14T05:52:46.730Z,6.43
2022-08-14T05:55:16.862Z,4.53
2022-08-14T05:57:51.623Z,5.57
2022-08-14T06:00:25.025Z,6.13
2022-08-14T06:03:00.517Z,5.30
2022-08-14T06:05:32.192Z,4.83
2022-08-14T06:08:01.324Z,5.90
2022-08-14T06:10:31.262Z,6.07
2022-08-14T06:13:01.859Z,4.77
2022-08-14T06:15:30.731Z,5.87
2022-08-14T06:18:01.784Z,7.27
2022-08-14T06:20:31.013Z,5.40
2022-08-14T06:22:59.516Z,4.30
2022-08-14T06:25:28.495Z,5.70
2022-08-14T06:27:58.024Z,6.27
2022-08-14T06:30:45.750Z,5.90
2022-08-14T06:33:18.075Z,5.33
2022-08-14T06:35:46.966Z,7.00
2022-08-14T06:38:17.852Z,5.00
2022-08-14T06:40:46.378Z,3.57
2022-08-14T06:43:15.494Z,4.40
2022-08-14T06:45:50.195Z,4.07
2022-08-14T06:48:24.880Z,4.10
2022-08-14T06:50:53.832Z,3.20
2022-08-14T06:53:21.826Z,4.00
2022-08-14T06:55:58.347Z,4.03
2022-08-14T06:58:32.121Z,5.73
2022-08-14T07:01:25.099Z,3.80
2022-08-14T07:04:22.886Z,3.47
2022-08-14T07:06:51.165Z,2.53
2022-08-14T07:09:22.637Z,2.70
2022-08-14T07:11:51.639Z,2.40
2022-08-14T07:14:19.837Z,3.50
2022-08-14T07:16:47.531Z,3.37
2022-08-14T07:19:21.070Z,2.97
2022-08-14T07:21:50.334Z,4.47
2022-08-14T07:24:21.736Z,2.60
2022-08-14T07:26:54.931Z,2.20
2022-08-14T07:29:26.270Z,2.27
2022-08-14T07:31:57.180Z,2.23
2022-08-14T07:34:36.157Z,2.97
2022-08-14T07:37:05.783Z,3.30
2022-08-14T07:39:35.132Z,2.30
2022-08-14T07:42:03.100Z,2.30
2022-08-14T07:44:36.090Z,2.37
2022-08-14T07:47:15.842Z,2.57
2022-08-14T07:49:55.712Z,1.80
2022-08-14T07:52:30.242Z,1.80
2022-08-14T07:54:59.040Z,1.70
2022-08-14T07:57:27.465Z,2.30
2022-08-14T07:59:55.337Z,2.13
2022-08-14T08:02:23.793Z,1.77
2022-08-14T08:04:58.996Z,1.93
2022-08-14T08:07:31.915Z,3.00
2022-08-14T08:10:02.122Z,1.80
2022-08-14T08:12:38.660Z,2.27
2022-08-14T08:15:08.026Z,2.60
2022-08-14T08:17:42.512Z,2.20
2022-08-14T08:20:25.119Z,2.30
2022-08-14T08:23:05.947Z,1.73
2022-08-14T08:25:40.213Z,2.15
2022-08-14T08:28:22.211Z,2.40
2022-08-14T08:30:56.482Z,4.22
2022-08-14T08:33:26.308Z,2.42
2022-08-14T08:36:03.662Z,2.22
2022-08-14T08:39:17.705Z,2.33
2022-08-14T08:41:19.227Z,2.05
2022-08-14T08:43:47.243Z,1.83
2022-08-14T08:46:23.888Z,2.03
2022-08-14T08:51:30.961Z,2.30
2022-08-14T08:54:05.087Z,1.80
2022-08-14T08:56:39.959Z,2.65
2022-08-14T08:59:20.284Z,2.45
2022-08-14T09:01:56.477Z,2.05
2022-08-14T09:04:26.513Z,2.00
2022-08-14T09:07:09.910Z,2.55
2022-08-14T09:09:54.312Z,2.40
2022-08-14T09:12:27.144Z,3.10
2022-08-14T09:15:02.062Z,2.45
2022-08-14T09:17:30.507Z,2.65
2022-08-14T09:20:02.244Z,2.67
2022-08-14T09:22:35.198Z,2.83
2022-08-14T09:25:07.158Z,2.13
2022-08-14T09:27:36.440Z,2.33
2022-08-14T09:30:13.271Z,2.17
2022-08-14T09:33:11.624Z,2.67
2022-08-14T09:35:56.649Z,2.78
2022-08-14T09:38:34.607Z,2.05
2022-08-14T09:41:11.949Z,2.38
2022-08-14T09:43:48.845Z,2.33
2022-08-14T09:46:21.329Z,1.88
2022-08-14T09:48:59.449Z,1.98
2022-08-14T09:51:32.682Z,1.80
2022-08-14T09:54:18.333Z,2.33
2022-08-14T09:56:57.079Z,2.50
2022-08-14T09:59:27.974Z,5.53
2022-08-14T10:01:57.491Z,2.40
2022-08-14T10:04:33.648Z,1.85
2022-08-14T10:07:03.483Z,2.15
2022-08-14T10:09:33.575Z,2.42
2022-08-14T10:12:04.591Z,2.28
2022-08-14T10:14:36.891Z,3.25
2022-08-14T10:17:08.362Z,2.25
2022-08-14T10:19:47.934Z,2.60
2022-08-14T10:23:13.696Z,2.47
2022-08-14T10:25:15.486Z,2.38
2022-08-14T10:27:46.788Z,2.30
2022-08-14T10:30:22.380Z,3.25
2022-08-14T10:32:52.497Z,2.08
2022-08-14T10:35:23.064Z,1.50
2022-08-14T10:37:53.300Z,1.42
2022-08-14T10:40:37.554Z,3.75
2022-08-14T10:43:23.082Z,1.88
2022-08-14T10:46:21.969Z,1.50
2022-08-14T10:48:58.384Z,1.98
2022-08-14T10:51:27.236Z,1.48
2022-08-14T10:54:01.871Z,1.55
2022-08-14T10:56:46.840Z,1.52
2022-08-14T10:59:14.607Z,1.95
2022-08-14T11:01:43.117Z,2.33
2022-08-14T11:04:28.402Z,1.98
2022-08-14T11:06:59.604Z,1.30
2022-08-14T11:09:32.293Z,1.70
2022-08-14T11:12:44.092Z,1.58
2022-08-14T11:14:59.112Z,1.77
2022-08-14T11:17:31.795Z,1.70
2022-08-14T11:20:01.484Z,1.60
2022-08-14T11:22:55.690Z,2.00
2022-08-14T11:25:23.405Z,1.85
2022-08-14T11:27:55.254Z,1.70
2022-08-14T11:30:50.315Z,1.02
2022-08-14T11:33:13.829Z,1.33
2022-08-14T11:35:49.679Z,3.80
2022-08-14T11:38:20.282Z,2.63
2022-08-14T11:40:48.665Z,1.45
2022-08-14T11:43:18.422Z,1.15
2022-08-14T11:45:52.212Z,1.83
2022-08-14T11:49:02.470Z,1.80
2022-08-14T11:51:16.365Z,1.20
2022-08-14T11:53:45.867Z,1.38
2022-08-14T11:56:13.872Z,1.23
2022-08-14T11:58:43.466Z,2.63
2022-08-14T12:01:11.508Z,0.90
2022-08-14T12:03:51.701Z,0.70
2022-08-14T12:06:28.889Z,0.77
2022-08-14T12:09:08.364Z,0.77
2022-08-14T12:11:44.071Z,1.00
2022-08-14T12:14:30.711Z,3.90
2022-08-14T12:17:09.633Z,0.90
2022-08-14T12:19:51.229Z,0.80
2022-08-14T12:22:34.207Z,0.80
2022-08-14T12:25:06.027Z,1.30
2022-08-14T12:27:51.896Z,0.98
2022-08-14T12:30:37.675Z,0.95
2022-08-14T12:33:08.925Z,1.02
2022-08-14T12:35:39.770Z,1.92
2022-08-14T12:38:08.646Z,0.88
2022-08-14T12:40:48.932Z,1.45
2022-08-14T12:43:18.413Z,0.90
2022-08-14T12:45:51.048Z,0.82
2022-08-14T12:48:21.527Z,0.73
2022-08-14T12:50:59.666Z,2.72
2022-08-14T12:53:36.192Z,1.00
2022-08-14T12:56:22.239Z,0.93
2022-08-14T12:58:57.662Z,1.25
2022-08-14T13:01:31.174Z,0.88
2022-08-14T13:04:10.207Z,1.10
2022-08-14T13:06:39.797Z,0.82
2022-08-14T13:09:11.590Z,1.25
2022-08-14T13:11:45.100Z,0.77
2022-08-14T13:14:17.203Z,0.80
2022-08-14T13:16:50.550Z,1.45
2022-08-14T13:19:19.927Z,0.52
2022-08-14T13:21:58.543Z,0.93
2022-08-14T13:24:35.512Z,1.17
2022-08-14T13:27:05.443Z,1.45
2022-08-14T13:29:40.480Z,1.70
2022-08-14T13:32:10.839Z,1.20
2022-08-14T13:34:40.601Z,0.77
2022-08-14T13:37:09.025Z,3.35
2022-08-14T13:39:37.631Z,1.30
2022-08-14T13:42:13.162Z,1.55
2022-08-14T13:44:42.892Z,1.05
2022-08-14T13:47:15.397Z,1.77
2022-08-14T13:49:57.166Z,1.55
2022-08-14T13:52:51.805Z,0.98
2022-08-14T13:55:19.107Z,1.10
2022-08-14T13:58:04.390Z,1.50
2022-08-14T14:00:35.842Z,1.48
2022-08-14T14:03:08.087Z,1.50
2022-08-14T14:05:52.961Z,1.73
2022-08-14T14:08:46.326Z,3.65
2022-08-14T14:11:11.065Z,1.33
2022-08-14T14:13:42.107Z,1.60
2022-08-14T14:16:15.417Z,2.17
2022-08-14T14:18:56.274Z,0.80
2022-08-14T14:21:28.488Z,1.20
2022-08-14T14:23:57.725Z,1.27
2022-08-14T14:26:27.688Z,1.40
2022-08-14T14:28:57.582Z,1.23
2022-08-14T14:31:30.384Z,1.58
2022-08-14T14:34:07.325Z,2.25
2022-08-14T14:36:50.128Z,1.40
2022-08-14T14:39:25.483Z,1.80
2022-08-14T14:42:04.159Z,1.83
2022-08-14T14:44:36.260Z,2.58
2022-08-14T14:47:11.863Z,1.58
2022-08-14T14:49:54.800Z,1.60
2022-08-14T14:52:27.496Z,1.25
2022-08-14T14:54:57.036Z,1.40
2022-08-14T14:57:35.290Z,2.25
2022-08-14T15:00:08.810Z,1.48
2022-08-14T15:02:42.572Z,1.85
2022-08-14T15:05:14.446Z,1.50
2022-08-14T15:07:42.643Z,1.50
2022-08-14T15:10:26.936Z,1.60
2022-08-14T15:13:03.761Z,1.90
2022-08-14T15:15:37.377Z,1.05
2022-08-14T15:18:09.985Z,1.25
2022-08-14T15:20:58.382Z,1.98
2022-08-14T15:23:32.516Z,1.60
2022-08-14T15:26:23.355Z,1.20
2022-08-14T15:29:03.232Z,1.50
2022-08-14T15:31:36.086Z,1.30
2022-08-14T15:34:43.217Z,2.47
2022-08-14T15:37:05.624Z,1.30
2022-08-14T15:39:35.663Z,1.48
2022-08-14T15:42:14.641Z,1.60
2022-08-14T15:44:58.482Z,1.38
2022-08-14T15:47:31.413Z,1.25
2022-08-14T15:50:01.214Z,1.40
2022-08-14T15:52:35.133Z,1.13
2022-08-14T15:55:08.074Z,2.30
2022-08-14T15:57:36.500Z,1.30
2022-08-14T16:00:40.670Z,1.30
2022-08-14T16:03:14.116Z,1.10
2022-08-14T16:05:46.119Z,1.20
2022-08-14T16:08:28.790Z,1.20
2022-08-14T16:10:59.740Z,1.30
2022-08-14T16:13:41.535Z,1.15
2022-08-14T16:16:34.890Z,1.30
2022-08-14T16:19:03.285Z,1.70
2022-08-14T16:21:32.029Z,1.35
2022-08-14T16:24:01.886Z,1.48
2022-08-14T16:26:33.355Z,3.30
2022-08-14T16:29:06.281Z,2.47
2022-08-14T16:31:36.779Z,1.98
2022-08-14T16:34:45.576Z,1.58
2022-08-14T16:36:54.176Z,1.40
2022-08-14T16:39:24.127Z,1.73
2022-08-14T16:41:53.505Z,1.65
2022-08-14T16:44:33.865Z,1.60
2022-08-14T16:47:04.310Z,1.30
2022-08-14T16:50:03.059Z,1.50
2022-08-14T16:52:25.747Z,1.38
2022-08-14T16:55:12.495Z,1.67
2022-08-14T16:57:48.202Z,1.65
2022-08-14T17:00:33.292Z,2.38
2022-08-14T17:03:13.040Z,1.63
2022-08-14T17:05:43.790Z,3.67
2022-08-14T17:08:33.450Z,1.73
2022-08-14T17:11:10.547Z,1.92
2022-08-14T17:13:59.214Z,1.30
2022-08-14T17:16:35.740Z,1.30
2022-08-14T17:19:05.919Z,1.58
2022-08-14T17:21:47.585Z,1.25
2022-08-14T17:24:57.532Z,1.85
2022-08-14T17:27:07.986Z,1.98
2022-08-14T17:29:54.554Z,1.45
2022-08-14T17:32:29.672Z,2.25
2022-08-14T17:35:16.891Z,1.33
2022-08-14T17:37:48.401Z,1.50
2022-08-14T17:40:25.835Z,1.15
2022-08-14T17:45:48.194Z,1.20
2022-08-14T17:49:15.644Z,2.03
2022-08-14T17:51:23.412Z,1.77
2022-08-14T17:54:02.269Z,1.83
2022-08-14T17:56:32.627Z,1.35
2022-08-14T17:59:06.135Z,3.38
2022-08-14T18:01:38.795Z,1.33
2022-08-14T18:04:25.035Z,1.25
2022-08-14T18:07:09.017Z,1.67
2022-08-14T18:09:56.855Z,1.45
2022-08-14T18:12:36.635Z,1.48
2022-08-14T18:15:15.987Z,1.38
2022-08-14T18:17:50.765Z,1.77
2022-08-14T18:21:42.449Z,1.40
2022-08-14T18:23:13.162Z,1.88
2022-08-14T18:25:47.678Z,2.25
2022-08-14T18:28:18.016Z,1.60
2022-08-14T18:31:44.222Z,2.08
2022-08-14T18:34:30.869Z,1.92
2022-08-14T18:37:14.399Z,3.00
2022-08-14T18:40:01.644Z,1.45
2022-08-14T18:42:44.297Z,1.83
2022-08-14T18:45:16.001Z,2.03
2022-08-14T18:48:14.288Z,2.28
2022-08-14T18:50:49.001Z,3.08
2022-08-14T18:53:24.875Z,2.20
2022-08-14T18:56:02.196Z,2.30
2022-08-14T18:58:48.663Z,2.97
2022-08-14T19:01:30.283Z,1.92
2022-08-14T19:04:01.423Z,2.88
2022-08-14T19:06:42.093Z,2.70
2022-08-14T19:09:43.303Z,1.92
2022-08-14T19:12:56.540Z,3.28
2022-08-14T19:15:27.258Z,3.50
2022-08-14T19:18:13.845Z,1.90
2022-08-14T19:20:52.871Z,3.00
2022-08-14T19:23:23.440Z,1.67
2022-08-14T19:26:34.732Z,1.70
2022-08-14T19:29:23.976Z,2.37
2022-08-14T19:31:55.663Z,1.90
2022-08-14T19:34:52.704Z,2.00
2022-08-14T19:37:48.291Z,1.90
2022-08-14T19:40:31.571Z,2.17
2022-08-14T19:43:02.997Z,2.07
2022-08-14T19:45:34.211Z,2.27
2022-08-14T19:48:02.215Z,2.07
2022-08-14T19:50:38.800Z,3.40
2022-08-14T19:53:17.100Z,2.37
2022-08-14T19:55:58.614Z,1.97
2022-08-14T19:58:38.543Z,3.17
2022-08-14T20:01:37.190Z,1.70
2022-08-14T20:04:46.556Z,1.93
2022-08-14T20:06:57.067Z,3.00
2022-08-14T20:11:11.599Z,3.67
2022-08-14T20:12:29.071Z,2.70
2022-08-14T20:15:06.819Z,2.80
2022-08-14T20:17:40.514Z,2.63
2022-08-14T20:20:30.893Z,2.37
2022-08-14T20:23:02.070Z,1.50
2022-08-14T20:25:37.578Z,5.30
2022-08-14T20:28:30.285Z,2.50
2022-08-14T20:31:14.126Z,2.00
2022-08-14T20:34:03.538Z,1.33
2022-08-14T20:36:31.410Z,1.63
2022-08-14T20:39:00.655Z,2.63
2022-08-14T20:41:29.700Z,2.87
2022-08-14T20:44:20.607Z,2.80
2022-08-14T20:46:49.980Z,3.20
2022-08-14T20:49:28.449Z,3.47
2022-08-14T20:52:00.306Z,3.90
2022-08-14T20:54:36.253Z,2.90
2022-08-14T20:57:10.646Z,3.67
2022-08-14T20:59:43.515Z,4.37
2022-08-14T21:02:29.698Z,2.43
2022-08-14T21:05:00.559Z,3.43
2022-08-14T21:07:36.458Z,2.90
2022-08-14T21:10:34.097Z,3.00
2022-08-14T21:14:09.308Z,4.00
2022-08-14T21:15:56.784Z,3.53
2022-08-14T21:18:29.763Z,2.93
2022-08-14T21:20:58.966Z,3.23
2022-08-14T21:23:32.453Z,2.67
2022-08-14T21:26:00.985Z,2.43
2022-08-14T21:28:35.156Z,3.43
2022-08-14T21:31:04.203Z,3.17
2022-08-14T21:33:36.028Z,3.67
2022-08-14T21:36:07.800Z,4.20
2022-08-14T21:38:38.067Z,2.80
2022-08-14T21:41:42.653Z,3.00
2022-08-14T21:44:18.086Z,3.60
2022-08-14T21:46:50.631Z,4.10
2022-08-14T21:49:23.742Z,3.87
2022-08-14T21:51:59.889Z,4.23
2022-08-14T21:54:49.684Z,4.47
2022-08-14T21:57:56.757Z,3.23
2022-08-14T22:00:30.227Z,3.10
2022-08-14T22:02:59.223Z,2.77
2022-08-14T22:05:29.843Z,2.97
2022-08-14T22:07:58.526Z,4.17
2022-08-14T22:10:26.572Z,2.90
2022-08-14T22:13:00.474Z,3.23
2022-08-14T22:15:30.963Z,3.40
2022-08-14T22:18:00.320Z,4.03
2022-08-14T22:20:32.879Z,5.27
2022-08-14T22:23:04.308Z,3.20
2022-08-14T22:25:34.516Z,3.60
2022-08-14T22:28:12.434Z,2.37
2022-08-14T22:30:41.755Z,4.30
2022-08-14T22:33:13.570Z,2.40
2022-08-14T22:35:44.385Z,3.47
2022-08-14T22:38:37.327Z,3.17
2022-08-14T22:41:25.785Z,2.43
2022-08-14T22:43:51.000Z,4.43
2022-08-14T22:46:20.335Z,3.43
2022-08-14T22:48:49.508Z,3.20
2022-08-14T22:51:22.199Z,2.13
2022-08-14T22:53:53.204Z,2.97
2022-08-14T22:56:22.369Z,3.33
2022-08-14T22:59:00.113Z,2.50
2022-08-14T23:01:55.783Z,2.50
2022-08-14T23:04:34.969Z,3.20
2022-08-14T23:07:14.412Z,3.13
2022-08-14T23:09:56.566Z,2.63
2022-08-14T23:12:29.062Z,5.53
2022-08-14T23:14:59.911Z,2.33
2022-08-14T23:17:39.327Z,2.63
2022-08-14T23:20:18.558Z,3.10
2022-08-14T23:22:52.912Z,2.37
2022-08-14T23:25:57.179Z,3.23
2022-08-14T23:28:32.668Z,3.20
2022-08-14T23:31:02.285Z,3.17
2022-08-14T23:33:34.702Z,2.40
2022-08-14T23:36:32.869Z,4.27
2022-08-14T23:38:54.809Z,3.03
2022-08-14T23:41:24.088Z,3.53
2022-08-14T23:43:55.100Z,2.73
2022-08-14T23:46:23.958Z,3.13
2022-08-14T23:49:03.491Z,2.77
2022-08-14T23:51:36.560Z,2.40
2022-08-14T23:54:48.324Z,6.53
2022-08-14T23:57:00.241Z,5.23
2022-08-14T23:59:31.833Z,2.53
